createdAt,value
2019-04-21T00:00:17.300Z,38.80
2019-04-21T00:02:48.783Z,37.80
2019-04-21T00:05:30.498Z,36.30
2019-04-21T00:08:10.748Z,37.80
2019-04-21T00:10:40.294Z,36.60
2019-04-21T00:13:04.976Z,36.80
2019-04-21T00:15:29.755Z,36.00
2019-04-21T00:17:58.414Z,34.90
2019-04-21T00:20:31.077Z,35.70
2019-04-21T00:23:13.079Z,35.10
2019-04-21T00:25:38.416Z,35.60
2019-04-21T00:28:13.988Z,34.50
2019-04-21T00:30:44.360Z,35.00
2019-04-21T00:33:06.960Z,34.10
2019-04-21T00:35:31.214Z,33.80
2019-04-21T00:38:25.008Z,33.50
2019-04-21T00:41:01.202Z,32.80
2019-04-21T00:43:26.513Z,33.60
2019-04-21T00:45:48.132Z,35.00
2019-04-21T00:48:30.434Z,34.50
2019-04-21T00:51:20.837Z,34.00
2019-04-21T00:53:57.916Z,34.40
2019-04-21T00:56:21.765Z,33.10
2019-04-21T00:58:53.736Z,32.70
2019-04-21T01:01:31.244Z,34.00
2019-04-21T01:04:04.696Z,32.70
2019-04-21T01:06:35.144Z,32.50
2019-04-21T01:09:02.733Z,32.00
2019-04-21T01:11:42.540Z,33.30
2019-04-21T01:14:15.097Z,32.70
2019-04-21T01:16:40.920Z,32.20
2019-04-21T01:19:05.336Z,32.50
2019-04-21T01:21:18.455Z,32.60
2019-04-21T01:23:48.630Z,33.00
2019-04-21T01:26:31.103Z,32.90
2019-04-21T01:29:05.424Z,31.20
2019-04-21T01:31:37.756Z,32.70
2019-04-21T01:34:08.347Z,32.70
2019-04-21T01:36:38.822Z,32.50
2019-04-21T01:39:13.709Z,32.80
2019-04-21T01:41:45.027Z,33.40
2019-04-21T01:44:22.411Z,32.80
2019-04-21T01:46:40.743Z,33.10
2019-04-21T01:49:09.193Z,32.60
2019-04-21T01:51:57.873Z,33.00
2019-04-21T01:54:45.877Z,32.30
2019-04-21T01:57:29.431Z,32.60
2019-04-21T01:59:54.954Z,32.30
2019-04-21T02:02:40.379Z,32.10
2019-04-21T02:05:10.105Z,31.70
2019-04-21T02:07:39.259Z,32.60
2019-04-21T02:10:14.455Z,32.70
2019-04-21T02:12:37.852Z,31.50
2019-04-21T02:15:11.345Z,30.70
2019-04-21T02:17:45.876Z,30.70
2019-04-21T02:20:03.792Z,31.30
2019-04-21T02:22:58.013Z,30.60
2019-04-21T02:25:14.000Z,31.00
2019-04-21T02:27:43.013Z,30.60
2019-04-21T02:30:29.637Z,30.40
2019-04-21T02:32:58.760Z,31.20
2019-04-21T02:35:31.925Z,30.00
2019-04-21T02:40:33.876Z,31.90
2019-04-21T02:45:29.767Z,30.60
2019-04-21T02:50:31.699Z,30.80
2019-04-21T02:53:01.400Z,30.20
2019-04-21T02:55:38.829Z,30.00
2019-04-21T02:58:09.749Z,30.30
2019-04-21T03:00:43.095Z,30.20
2019-04-21T03:03:36.611Z,30.40
2019-04-21T03:06:24.290Z,29.80
2019-04-21T03:11:28.949Z,31.10
2019-04-21T03:13:58.052Z,29.80
2019-04-21T03:16:23.487Z,30.00
2019-04-21T03:21:26.408Z,30.00
2019-04-21T03:23:59.703Z,30.70
2019-04-21T03:29:03.021Z,30.10
2019-04-21T03:36:47.730Z,30.70
2019-04-21T03:39:20.168Z,31.60
2019-04-21T03:41:39.670Z,32.80
2019-04-21T03:44:06.559Z,31.80
2019-04-21T03:46:42.248Z,31.20
2019-04-21T03:49:16.402Z,30.30
2019-04-21T03:51:37.709Z,30.50
2019-04-21T03:54:09.265Z,30.60
2019-04-21T03:57:57.728Z,30.50
2019-04-21T03:59:09.527Z,29.30
2019-04-21T04:04:35.620Z,30.00
2019-04-21T04:07:39.537Z,30.80
2019-04-21T04:10:04.060Z,30.00
2019-04-21T04:12:26.260Z,29.80
2019-04-21T04:20:06.059Z,30.20
2019-04-21T04:25:04.943Z,29.70
2019-04-21T04:32:34.796Z,29.50
2019-04-21T04:40:14.575Z,30.20
2019-04-21T04:42:56.401Z,30.50
2019-04-21T04:50:34.041Z,30.50
2019-04-21T04:52:52.974Z,30.10
2019-04-21T04:55:25.858Z,30.10
2019-04-21T05:02:56.305Z,30.40
2019-04-21T05:05:30.205Z,30.60
2019-04-21T05:08:28.762Z,30.00
2019-04-21T05:10:40.849Z,31.20
2019-04-21T05:12:57.235Z,30.40
2019-04-21T05:15:28.556Z,30.60
2019-04-21T05:17:57.643Z,30.90
2019-04-21T05:20:24.516Z,30.40
2019-04-21T05:23:00.552Z,30.50
2019-04-21T05:25:23.433Z,32.40
2019-04-21T05:27:52.386Z,31.00
2019-04-21T05:30:40.406Z,30.70
2019-04-21T05:33:36.102Z,32.70
2019-04-21T05:36:23.900Z,32.90
2019-04-21T05:39:03.873Z,31.10
2019-04-21T05:41:26.214Z,31.40
2019-04-21T05:44:13.364Z,30.10
2019-04-21T05:46:46.624Z,29.50
2019-04-21T05:49:14.097Z,30.20
2019-04-21T05:51:59.789Z,30.20
2019-04-21T05:57:08.659Z,30.20
2019-04-21T05:59:40.066Z,29.70
2019-04-21T06:02:18.853Z,30.40
2019-04-21T06:04:56.617Z,30.70
2019-04-21T06:07:18.924Z,29.90
2019-04-21T06:09:48.754Z,29.00
2019-04-21T06:12:08.725Z,29.30
2019-04-21T06:14:48.475Z,29.80
2019-04-21T06:17:19.303Z,29.50
2019-04-21T06:19:50.269Z,29.40
2019-04-21T06:22:14.894Z,29.20
2019-04-21T06:25:15.587Z,29.30
2019-04-21T06:27:22.863Z,29.10
2019-04-21T06:29:49.798Z,30.00
2019-04-21T06:32:36.251Z,29.10
2019-04-21T06:35:13.276Z,28.90
2019-04-21T06:37:51.050Z,29.10
2019-04-21T06:40:21.593Z,27.90
2019-04-21T06:42:40.181Z,30.10
2019-04-21T06:45:12.865Z,29.10
2019-04-21T06:47:51.324Z,29.40
2019-04-21T06:50:20.339Z,29.90
2019-04-21T06:55:15.589Z,28.70
2019-04-21T06:57:44.418Z,29.00
2019-04-21T07:00:12.099Z,30.00
2019-04-21T07:03:00.060Z,30.00
2019-04-21T07:05:23.880Z,29.30
2019-04-21T07:07:57.596Z,29.70
2019-04-21T07:10:22.738Z,29.40
2019-04-21T07:12:47.859Z,29.40
2019-04-21T07:15:16.833Z,29.60
2019-04-21T07:17:49.983Z,29.70
2019-04-21T07:20:24.761Z,28.10
2019-04-21T07:22:54.193Z,32.50
2019-04-21T07:25:28.604Z,27.90
2019-04-21T07:27:58.116Z,28.10
2019-04-21T07:30:31.187Z,31.10
2019-04-21T07:33:07.128Z,29.60
2019-04-21T07:35:24.901Z,27.60
2019-04-21T07:38:01.290Z,27.70
2019-04-21T07:40:24.820Z,28.00
2019-04-21T07:42:51.356Z,28.50
2019-04-21T07:45:27.799Z,26.70
2019-04-21T07:48:06.466Z,26.90
2019-04-21T07:50:47.303Z,29.20
2019-04-21T07:53:30.301Z,27.60
2019-04-21T07:55:34.014Z,26.50
2019-04-21T07:58:24.221Z,31.00
2019-04-21T08:00:58.483Z,27.50
2019-04-21T08:03:30.056Z,28.60
2019-04-21T08:05:58.915Z,27.70
2019-04-21T08:08:20.725Z,30.40
2019-04-21T08:10:59.795Z,30.20
2019-04-21T08:13:34.617Z,27.30
2019-04-21T08:15:58.246Z,29.20
2019-04-21T08:18:36.834Z,27.40
2019-04-21T08:20:54.954Z,26.40
2019-04-21T08:23:31.892Z,30.10
2019-04-21T08:28:32.308Z,28.50
2019-04-21T08:31:02.030Z,27.90
2019-04-21T08:33:38.772Z,27.20
2019-04-21T08:36:20.777Z,29.40
2019-04-21T08:38:34.361Z,25.40
2019-04-21T08:41:08.572Z,28.20
2019-04-21T08:43:43.068Z,27.90
2019-04-21T08:46:08.201Z,26.20
2019-04-21T08:48:42.323Z,26.60
2019-04-21T08:51:23.272Z,26.60
2019-04-21T08:53:45.825Z,28.90
2019-04-21T08:56:41.378Z,27.20
2019-04-21T08:59:24.326Z,25.00
2019-04-21T09:02:18.159Z,26.90
2019-04-21T09:04:41.278Z,26.00
2019-04-21T09:07:19.614Z,25.10
2019-04-21T09:09:47.506Z,26.60
2019-04-21T09:12:16.156Z,25.80
2019-04-21T09:14:50.572Z,26.10
2019-04-21T09:17:10.850Z,27.80
2019-04-21T09:22:18.237Z,26.10
2019-04-21T09:24:51.911Z,25.50
2019-04-21T09:27:20.312Z,25.60
2019-04-21T09:29:39.355Z,27.00
2019-04-21T09:32:09.682Z,26.70
2019-04-21T09:34:38.468Z,27.50
2019-04-21T09:37:19.105Z,25.50
2019-04-21T09:39:40.997Z,26.00
2019-04-21T09:42:06.718Z,24.60
2019-04-21T09:44:40.326Z,24.20
2019-04-21T09:47:07.443Z,25.50
2019-04-21T09:49:38.104Z,25.20
2019-04-21T09:52:18.824Z,26.10
2019-04-21T09:54:51.019Z,25.40
2019-04-21T09:57:21.903Z,24.10
2019-04-21T09:59:43.779Z,24.80
2019-04-21T10:02:18.192Z,25.50
2019-04-21T10:04:42.439Z,24.70
2019-04-21T10:07:23.601Z,24.50
2019-04-21T10:09:43.574Z,24.70
2019-04-21T10:12:14.192Z,26.30
2019-04-21T10:14:43.400Z,24.00
2019-04-21T10:17:25.277Z,25.00
2019-04-21T10:19:55.096Z,25.40
2019-04-21T10:22:26.588Z,24.40
2019-04-21T10:24:56.387Z,24.50
2019-04-21T10:27:25.583Z,25.70
2019-04-21T10:29:56.000Z,26.20
2019-04-21T10:32:25.500Z,25.90
2019-04-21T10:34:55.123Z,25.70
2019-04-21T10:37:36.517Z,26.10
2019-04-21T10:39:55.806Z,26.30
2019-04-21T10:42:25.051Z,26.50
2019-04-21T10:44:54.820Z,25.50
2019-04-21T10:47:24.783Z,23.30
2019-04-21T10:49:54.914Z,24.30
2019-04-21T10:52:29.704Z,27.70
2019-04-21T10:55:20.799Z,26.40
2019-04-21T10:57:32.548Z,25.10
2019-04-21T11:00:01.672Z,26.20
2019-04-21T11:02:43.287Z,29.50
2019-04-21T11:05:12.561Z,27.00
2019-04-21T11:08:07.649Z,24.70
2019-04-21T11:10:23.709Z,26.00
2019-04-21T11:12:52.795Z,27.80
2019-04-21T11:15:23.189Z,26.60
2019-04-21T11:17:52.486Z,24.80
2019-04-21T11:20:22.693Z,26.20
2019-04-21T11:22:53.545Z,25.90
2019-04-21T11:25:24.150Z,24.90
2019-04-21T11:27:53.364Z,26.10
2019-04-21T11:30:23.346Z,26.70
2019-04-21T11:32:53.147Z,24.30
2019-04-21T11:35:23.422Z,24.60
2019-04-21T11:37:59.420Z,24.50
2019-04-21T11:40:25.298Z,24.20
2019-04-21T11:42:55.627Z,24.80
2019-04-21T11:45:34.676Z,26.20
2019-04-21T11:48:24.220Z,24.20
2019-04-21T11:50:53.420Z,25.30
2019-04-21T11:53:23.150Z,26.30
2019-04-21T11:55:53.940Z,24.80
2019-04-21T11:58:23.670Z,24.20
2019-04-21T12:00:57.945Z,23.80
2019-04-21T12:03:31.712Z,24.60
2019-04-21T12:06:01.539Z,23.80
2019-04-21T12:08:38.133Z,24.80
2019-04-21T12:11:01.524Z,23.80
2019-04-21T12:13:32.064Z,26.90
2019-04-21T12:16:01.401Z,25.10
2019-04-21T12:18:32.092Z,24.90
2019-04-21T12:21:01.383Z,23.40
2019-04-21T12:23:30.509Z,23.10
2019-04-21T12:26:01.099Z,24.00
2019-04-21T12:28:30.516Z,23.70
2019-04-21T12:31:00.076Z,23.20
2019-04-21T12:33:54.117Z,24.60
2019-04-21T12:36:24.178Z,25.00
2019-04-21T12:38:56.279Z,26.50
2019-04-21T12:41:24.622Z,23.50
2019-04-21T12:43:54.859Z,24.20
2019-04-21T12:46:24.109Z,22.50
2019-04-21T12:48:53.826Z,22.90
2019-04-21T12:51:23.948Z,22.80
2019-04-21T12:53:54.025Z,22.90
2019-04-21T12:56:23.467Z,22.60
2019-04-21T12:58:53.305Z,21.10
2019-04-21T13:01:23.164Z,23.60
2019-04-21T13:03:52.344Z,24.60
2019-04-21T13:06:21.486Z,20.40
2019-04-21T13:08:58.968Z,23.10
2019-04-21T13:11:21.539Z,21.60
2019-04-21T13:13:50.633Z,21.70
2019-04-21T13:16:21.128Z,20.30
2019-04-21T13:18:53.336Z,23.60
2019-04-21T13:21:22.570Z,20.50
2019-04-21T13:23:52.696Z,24.90
2019-04-21T13:26:29.586Z,24.00
2019-04-21T13:28:52.651Z,21.10
2019-04-21T13:31:22.349Z,22.40
2019-04-21T13:33:52.307Z,22.80
2019-04-21T13:36:21.435Z,22.40
2019-04-21T13:39:38.070Z,21.70
2019-04-21T13:41:51.848Z,26.30
2019-04-21T13:44:13.565Z,21.60
2019-04-21T13:46:45.122Z,22.30
2019-04-21T13:49:14.673Z,22.20
2019-04-21T13:51:44.060Z,23.70
2019-04-21T13:54:13.933Z,21.50
2019-04-21T13:56:44.747Z,22.10
2019-04-21T13:59:14.171Z,23.20
2019-04-21T14:01:43.640Z,22.80
2019-04-21T14:04:13.687Z,23.70
2019-04-21T14:06:42.902Z,23.20
2019-04-21T14:09:15.720Z,23.10
2019-04-21T14:11:45.287Z,25.40
2019-04-21T14:14:14.474Z,24.30
2019-04-21T14:16:44.147Z,24.00
2019-04-21T14:19:15.338Z,23.40
2019-04-21T14:21:48.137Z,25.90
2019-04-21T14:24:17.081Z,24.80
2019-04-21T14:26:46.337Z,24.40
2019-04-21T14:29:15.532Z,23.50
2019-04-21T14:31:44.609Z,25.20
2019-04-21T14:34:14.337Z,24.30
2019-04-21T14:36:44.546Z,26.50
2019-04-21T14:39:14.623Z,22.90
2019-04-21T14:41:44.296Z,24.50
2019-04-21T14:44:13.405Z,24.50
2019-04-21T14:46:53.339Z,24.10
2019-04-21T14:49:41.551Z,24.60
2019-04-21T14:52:15.035Z,24.20
2019-04-21T14:55:22.795Z,24.80
2019-04-21T14:57:51.975Z,24.80
2019-04-21T15:00:22.640Z,25.00
2019-04-21T15:02:51.961Z,24.10
2019-04-21T15:05:21.731Z,24.60
2019-04-21T15:07:50.963Z,24.80
2019-04-21T15:10:25.205Z,25.40
2019-04-21T15:12:51.870Z,25.10
2019-04-21T15:15:20.962Z,25.40
2019-04-21T15:17:50.002Z,27.00
2019-04-21T15:20:22.049Z,25.60
2019-04-21T15:22:52.558Z,25.40
2019-04-21T15:25:21.965Z,24.50
2019-04-21T15:27:51.114Z,25.90
2019-04-21T15:30:20.760Z,26.20
2019-04-21T15:32:50.631Z,26.00
2019-04-21T15:35:19.785Z,24.10
2019-04-21T15:37:49.874Z,26.80
2019-04-21T15:40:32.027Z,24.70
2019-04-21T15:42:55.217Z,25.20
2019-04-21T15:45:24.383Z,26.60
2019-04-21T15:47:58.080Z,26.40
2019-04-21T15:50:28.099Z,27.00
2019-04-21T15:52:59.619Z,28.10
2019-04-21T15:55:46.719Z,24.60
2019-04-21T15:58:36.858Z,25.40
2019-04-21T16:01:20.917Z,25.90
2019-04-21T16:03:49.969Z,25.30
2019-04-21T16:06:19.460Z,26.10
2019-04-21T16:08:52.530Z,25.60
2019-04-21T16:11:19.855Z,25.50
2019-04-21T16:13:49.792Z,28.00
2019-04-21T16:16:20.152Z,26.80
2019-04-21T16:18:50.043Z,26.50
2019-04-21T16:21:19.813Z,27.50
2019-04-21T16:23:48.985Z,26.40
2019-04-21T16:26:22.245Z,25.90
2019-04-21T16:28:51.647Z,26.20
2019-04-21T16:31:20.693Z,28.00
2019-04-21T16:33:51.196Z,25.80
2019-04-21T16:36:20.397Z,27.10
2019-04-21T16:38:53.606Z,27.20
2019-04-21T16:41:22.762Z,27.30
2019-04-21T16:43:53.156Z,28.30
2019-04-21T16:46:23.257Z,27.90
2019-04-21T16:48:53.765Z,28.00
2019-04-21T16:51:23.955Z,27.20
2019-04-21T16:54:00.185Z,26.80
2019-04-21T16:56:41.683Z,26.00
2019-04-21T16:59:21.224Z,26.70
2019-04-21T17:01:50.320Z,26.90
2019-04-21T17:04:20.407Z,27.40
2019-04-21T17:06:49.522Z,27.10
2019-04-21T17:09:18.868Z,29.00
2019-04-21T17:11:57.577Z,28.00
2019-04-21T17:14:37.485Z,27.10
2019-04-21T17:17:20.610Z,27.20
2019-04-21T17:19:29.947Z,27.00
2019-04-21T17:21:57.547Z,27.00
2019-04-21T17:24:26.758Z,28.20
2019-04-21T17:26:57.472Z,26.80
2019-04-21T17:29:26.651Z,27.20
2019-04-21T17:31:55.678Z,27.00
2019-04-21T17:34:28.052Z,27.10
2019-04-21T17:36:57.128Z,27.00
2019-04-21T17:39:26.999Z,27.60
2019-04-21T17:42:10.948Z,27.60
2019-04-21T17:44:27.755Z,27.20
2019-04-21T17:47:03.507Z,26.90
2019-04-21T17:49:28.822Z,26.70
2019-04-21T17:52:18.160Z,27.40
2019-04-21T17:54:51.257Z,27.90
2019-04-21T17:57:36.481Z,27.00
2019-04-21T18:00:14.071Z,27.60
2019-04-21T18:02:45.988Z,27.20
2019-04-21T18:05:19.491Z,26.90
2019-04-21T18:07:46.488Z,27.70
2019-04-21T18:10:14.284Z,27.90
2019-04-21T18:12:36.407Z,26.50
2019-04-21T18:15:16.175Z,26.70
2019-04-21T18:17:26.750Z,27.40
2019-04-21T18:19:57.256Z,27.90
2019-04-21T18:23:02.355Z,27.40
2019-04-21T18:25:44.890Z,27.30
2019-04-21T18:28:04.824Z,27.80
2019-04-21T18:30:44.555Z,28.10
2019-04-21T18:33:23.457Z,27.50
2019-04-21T18:36:04.717Z,27.40
2019-04-21T18:39:18.191Z,26.70
2019-04-21T18:41:42.674Z,27.50
2019-04-21T18:44:36.338Z,27.80
2019-04-21T18:47:16.367Z,27.30
2019-04-21T18:49:29.317Z,26.90
2019-04-21T18:52:17.115Z,26.50
2019-04-21T18:54:53.876Z,26.40
2019-04-21T18:57:17.255Z,27.30
2019-04-21T18:59:40.251Z,27.00
2019-04-21T19:02:13.482Z,26.70
2019-04-21T19:04:39.492Z,26.80
2019-04-21T19:07:19.884Z,27.20
2019-04-21T19:12:36.642Z,27.10
2019-04-21T19:15:02.698Z,27.40
2019-04-21T19:20:07.488Z,27.20
2019-04-21T19:22:36.977Z,28.20
2019-04-21T19:25:09.683Z,27.40
2019-04-21T19:27:38.336Z,27.70
2019-04-21T19:32:43.058Z,27.10
2019-04-21T19:34:59.938Z,26.50
2019-04-21T19:37:27.957Z,27.10
2019-04-21T19:40:07.755Z,27.20
2019-04-21T19:42:37.986Z,27.20
2019-04-21T19:45:16.538Z,27.10
2019-04-21T19:47:48.664Z,26.50
2019-04-21T19:50:15.853Z,26.60
2019-04-21T19:52:40.934Z,26.70
2019-04-21T19:55:02.379Z,26.90
2019-04-21T19:57:31.625Z,27.30
2019-04-21T20:00:04.219Z,26.10
2019-04-21T20:02:32.279Z,27.20
2019-04-21T20:05:07.346Z,28.10
2019-04-21T20:07:49.526Z,28.40
2019-04-21T20:10:24.051Z,26.70
2019-04-21T20:12:53.346Z,26.70
2019-04-21T20:15:31.740Z,26.40
2019-04-21T20:17:57.543Z,27.20
2019-04-21T20:20:08.952Z,27.60
2019-04-21T20:22:43.174Z,27.40
2019-04-21T20:25:15.230Z,28.00
2019-04-21T20:27:49.406Z,27.40
2019-04-21T20:30:32.818Z,27.30
2019-04-21T20:33:05.888Z,27.70
2019-04-21T20:35:38.212Z,27.80
2019-04-21T20:37:57.808Z,28.30
2019-04-21T20:40:27.767Z,27.50
2019-04-21T20:43:03.461Z,28.30
2019-04-21T20:45:52.683Z,28.60
2019-04-21T20:47:53.491Z,28.50
2019-04-21T20:50:35.066Z,29.40
2019-04-21T20:53:07.241Z,29.20
2019-04-21T20:55:30.254Z,28.80
2019-04-21T20:58:03.435Z,30.10
2019-04-21T21:00:47.113Z,29.90
2019-04-21T21:03:12.160Z,29.80
2019-04-21T21:05:38.953Z,30.00
2019-04-21T21:08:19.726Z,30.50
2019-04-21T21:10:41.471Z,29.60
2019-04-21T21:13:20.438Z,30.50
2019-04-21T21:15:51.374Z,30.50
2019-04-21T21:18:26.855Z,29.70
2019-04-21T21:20:52.966Z,29.60
2019-04-21T21:23:11.532Z,30.00
2019-04-21T21:25:51.060Z,29.90
2019-04-21T21:28:12.518Z,29.50
2019-04-21T21:30:45.024Z,29.80
2019-04-21T21:33:22.780Z,29.80
2019-04-21T21:35:47.865Z,30.60
2019-04-21T21:38:28.093Z,30.40
2019-04-21T21:40:51.887Z,30.40
2019-04-21T21:43:12.976Z,30.50
2019-04-21T21:45:45.176Z,30.40
2019-04-21T21:48:26.434Z,29.90
2019-04-21T21:50:51.287Z,31.00
2019-04-21T21:53:16.388Z,30.50
2019-04-21T21:55:42.606Z,31.50
2019-04-21T21:58:12.358Z,31.80
2019-04-21T22:00:49.851Z,31.60
2019-04-21T22:03:24.451Z,32.30
2019-04-21T22:05:53.514Z,32.30
2019-04-21T22:08:18.427Z,31.90
2019-04-21T22:10:47.616Z,33.00
2019-04-21T22:13:20.337Z,32.30
2019-04-21T22:15:55.078Z,32.90
2019-04-21T22:18:35.181Z,32.70
2019-04-21T22:21:02.262Z,33.10
2019-04-21T22:23:30.539Z,33.20
2019-04-21T22:25:51.435Z,32.90
2019-04-21T22:28:22.038Z,32.60
2019-04-21T22:30:53.366Z,32.20
2019-04-21T22:33:23.319Z,33.00
2019-04-21T22:35:57.971Z,32.80
2019-04-21T22:38:38.604Z,32.60
2019-04-21T22:41:06.044Z,31.40
2019-04-21T22:43:32.906Z,32.50
2019-04-21T22:45:55.863Z,32.40
2019-04-21T22:48:30.714Z,32.10
2019-04-21T22:51:00.603Z,31.00
2019-04-21T22:53:37.190Z,32.10
2019-04-21T22:56:10.306Z,31.80
2019-04-21T22:58:35.738Z,31.70
2019-04-21T23:01:04.242Z,32.10
2019-04-21T23:03:33.997Z,31.10
2019-04-21T23:06:09.786Z,31.70
2019-04-21T23:08:39.442Z,32.20
2019-04-21T23:11:09.994Z,31.70
2019-04-21T23:13:36.461Z,31.50
2019-04-21T23:16:06.602Z,32.00
2019-04-21T23:18:53.047Z,31.70
2019-04-21T23:21:22.530Z,32.60
2019-04-21T23:23:59.602Z,32.60
2019-04-21T23:26:26.798Z,31.50
2019-04-21T23:28:59.933Z,31.80
2019-04-21T23:31:29.094Z,31.40
2019-04-21T23:33:42.069Z,32.60
2019-04-21T23:36:17.228Z,32.90
2019-04-21T23:38:44.890Z,31.70
2019-04-21T23:41:13.115Z,31.70
2019-04-21T23:43:44.807Z,32.60
2019-04-21T23:46:20.254Z,33.50
2019-04-21T23:49:04.229Z,32.00
2019-04-21T23:51:27.441Z,32.40
2019-04-21T23:53:45.372Z,32.30
2019-04-21T23:56:21.673Z,32.00
2019-04-21T23:58:51.940Z,32.70
